Flight Track Log - Related Links

Times and Time Zones

All times are in EDT time to prevent confusion due to time zone crossing. See the AWE710 flight status page for this flight to view local times or setup timezone preferences in your user account.

Time Position Orientation Groundspeed Altitude Reporting Facility
EDT Latitude Longitude Course Direction KTS MPH feet Rate Location/Type
Fri 11:13:08 PM 39.8685 -75.2002 86° East 169 194 1,200  Level FlightAware ADS-B
Fri 11:13:12 PM 39.8687 -75.1963 86° East 170 196 1,400 3,000 Climbing FlightAware ADS-B
Fri 11:13:16 PM 39.8685 -75.1921 94° East 171 197 1,600 3,000 Climbing FlightAware ADS-B
Fri 11:13:20 PM 39.8680 -75.1888 101° East 173 199 1,800 1,875 Climbing FlightAware ADS-B
Fri 11:13:32 PM 39.8661 -75.1754 100° East 190 219 2,100 1,286 Climbing FlightAware ADS-B
Fri 11:13:48 PM 39.8632 -75.1563 101° East 212 244 2,400 1,448 Climbing FlightAware ADS-B
Fri 11:14:01 PM 39.8603 -75.1391 102° East 232 267 2,800 1,862 Climbing FlightAware ADS-B
Fri 11:14:17 PM 39.8560 -75.1166 104° East 246 283 3,300 2,250 Climbing FlightAware ADS-B
Fri 11:14:33 PM 39.8517 -75.0933 104° East 252 290 4,000 2,516 Climbing FlightAware ADS-B
Fri 11:14:48 PM 39.8476 -75.0708 103° East 261 300 4,600 1,333 Climbing FlightAware ADS-B
Fri 11:15:18 PM 39.8388 -75.0203 103° East 299 344 5,000 652 Climbing FlightAware ADS-B
Fri 11:15:34 PM 39.8340 -74.9917 102° East 306 352 5,100 387 Climbing FlightAware ADS-B
Fri 11:15:49 PM 39.8294 -74.9651 103° East 300 345 5,200 194 Climbing FlightAware ADS-B
Fri 11:16:05 PM 39.8249 -74.9379 102° East 300 345 5,200  Level FlightAware ADS-B
Fri 11:16:21 PM 39.8199 -74.9086 103° East 301 346 5,200  Level FlightAware ADS-B
Fri 11:16:26 PM 39.8184 -74.9005 104° East 299 344 5,200  Level FlightAware ADS-B
Fri 11:16:32 PM 39.8160 -74.8902 107° East 295 339 5,200  Level FlightAware ADS-B
Fri 11:16:36 PM 39.8138 -74.8842 116° Southeast 293 337 5,200 1,263 Level FlightAware ADS-B
Fri 11:16:51 PM 39.8026 -74.8612 122° Southeast 290 334 5,600 1,929 Climbing FlightAware ADS-B
Fri 11:17:04 PM 39.7937 -74.8432 123° Southeast 293 337 6,100 3,091 Climbing FlightAware ADS-B
Fri 11:17:24 PM 39.7777 -74.8123 124° Southeast 296 341 7,300 3,500 Climbing FlightAware ADS-B
Fri 11:17:40 PM 39.7662 -74.7882 122° Southeast 299 344 8,200 3,290 Climbing FlightAware ADS-B
Fri 11:17:55 PM 39.7554 -74.7651 121° Southeast 301 346 9,000 3,000 Climbing FlightAware ADS-B
Fri 11:18:02 PM 39.7509 -74.7556 122° Southeast 302 348 9,300 3,081 Climbing FlightAware ADS-B
Fri 11:18:32 PM 39.7266 -74.7100 125° Southeast 305 351 10,900 3,086 Climbing FlightAware ADS-B
Fri 11:19:12 PM 39.6986 -74.6454 119° Southeast 332 382 12,900 3,000 Climbing FlightAware ADS-B
Fri 11:19:22 PM 39.6974 -74.6252 94° East 342 394 13,400 2,455 Climbing FlightAware ADS-B
Fri 11:19:34 PM 39.6981 -74.6003 88° East 353 406 13,800 2,500 Climbing FlightAware ADS-B
Fri 11:19:46 PM 39.7011 -74.5740 82° East 361 415 14,400 2,750 Climbing FlightAware ADS-B
Fri 11:19:58 PM 39.7063 -74.5491 75° East 366 421 14,900 2,538 Climbing FlightAware ADS-B
Fri 11:20:12 PM 39.7154 -74.5204 68° East 372 428 15,500 2,591 Climbing FlightAware ADS-B
Fri 11:20:42 PM 39.7384 -74.4592 64° Northeast 380 437 16,800 2,700 Climbing FlightAware ADS-B
Fri 11:20:52 PM 39.7467 -74.4384 63° Northeast 385 443 17,300 2,286 Climbing FlightAware ADS-B
Fri 11:21:24 PM 39.7762 -74.3749 59° Northeast 398 458 18,400 1,810 Climbing FlightAware ADS-B
Fri 11:21:55 PM 39.8065 -74.3091 59° Northeast 424 488 19,200 1,645 Climbing FlightAware ADS-B
Fri 11:22:26 PM 39.8394 -74.2395 58° Northeast 442 509 20,100 1,742 Climbing FlightAware ADS-B
Fri 11:22:57 PM 39.8716 -74.1677 60° Northeast 452 520 21,000 1,905 Climbing FlightAware ADS-B
Fri 11:23:29 PM 39.9058 -74.0904 60° Northeast 468 539 22,100 1,754 Climbing FlightAware ADS-B
Fri 11:24:02 PM 39.9386 -74.0087 62° Northeast 481 554 22,900 831 Climbing FlightAware ADS-B
Fri 11:24:34 PM 39.9706 -73.9246 64° Northeast 491 565 23,000 143 Climbing FlightAware ADS-B
Fri 11:24:44 PM 39.9820 -73.8972 61° Northeast 490 564 23,000  Level FlightAware ADS-B
Fri 11:24:53 PM 39.9937 -73.8748 56° Northeast 486 559 23,000  Level FlightAware ADS-B
Fri 11:25:04 PM 40.0095 -73.8510 49° Northeast 481 554 23,000  Level FlightAware ADS-B
Fri 11:25:14 PM 40.0251 -73.8316 44° Northeast 477 549 23,000  Level FlightAware ADS-B
Fri 11:25:21 PM 40.0371 -73.8191 39° Northeast 474 545 23,000  Level FlightAware ADS-B
Fri 11:25:52 PM 40.0908 -73.7670 37° Northeast 473 544 23,000  Level FlightAware ADS-B
Fri 11:26:22 PM 40.1440 -73.7147 37° Northeast 475 547 23,000  Level FlightAware ADS-B
Fri 11:26:52 PM 40.1976 -73.6625 37° Northeast 475 547 23,000  Level FlightAware ADS-B
Fri 11:27:24 PM 40.2558 -73.6065 36° Northeast 492 566 23,000  Level FlightAware ADS-B
Fri 11:27:29 PM 40.2637 -73.5983 38° Northeast 496 571 23,000  Level FlightAware ADS-B
Fri 11:27:42 PM 40.2848 -73.5715 44° Northeast 500 575 23,000 194 Level FlightAware ADS-B
Fri 11:28:00 PM 40.3100 -73.5266 54° Northeast 503 579 23,100 1,102 Climbing FlightAware ADS-B
Fri 11:28:31 PM 40.3421 -73.4438 63° Northeast 507 583 23,900 1,650 Climbing FlightAware ADS-B
Fri 11:28:40 PM 40.3507 -73.4186 66° East 509 586 24,200 2,341 Climbing FlightAware ADS-B
Fri 11:29:12 PM 40.3811 -73.3281 66° East 505 581 25,500 2,095 Climbing FlightAware ADS-B
Fri 11:29:43 PM 40.4087 -73.2392 68° East 507 583 26,400 1,574 Climbing FlightAware ADS-B
Fri 11:30:13 PM 40.4345 -73.1526 69° East 515 593 27,100 1,475 Climbing FlightAware ADS-B
Fri 11:30:44 PM 40.4611 -73.0617 69° East 520 598 27,900 1,478 Climbing FlightAware ADS-B
Fri 11:31:22 PM 40.4935 -72.9494 69° East 526 605 28,800 1,457 Climbing FlightAware ADS-B
Fri 11:31:54 PM 40.5212 -72.8530 69° East 529 609 29,600 1,333 Climbing FlightAware ADS-B
Fri 11:32:25 PM 40.5476 -72.7603 69° East 537 618 30,200 1,180 Climbing FlightAware ADS-B
Fri 11:32:55 PM 40.5742 -72.6662 70° East 543 625 30,800 1,333 Climbing FlightAware ADS-B
Fri 11:33:28 PM 40.6032 -72.5646 69° East 546 628 31,600 1,636 Climbing FlightAware ADS-B
Fri 11:34:01 PM 40.6321 -72.4636 69° East 544 626 32,600 1,909 Climbing FlightAware ADS-B
Fri 11:34:34 PM 40.6609 -72.3629 69° East 538 619 33,700 1,727 Climbing FlightAware ADS-B
Fri 11:35:07 PM 40.6899 -72.2600 70° East 536 617 34,500 1,219 Climbing FlightAware ADS-B
Fri 11:35:38 PM 40.7163 -72.1654 70° East 541 623 35,000 484 Climbing FlightAware ADS-B
Fri 11:36:09 PM 40.7428 -72.0693 70° East 550 633 35,000  Level FlightAware ADS-B
Fri 11:36:52 PM 40.7802 -71.9330 70° East 544 626 35,000  Level FlightAware ADS-B
Fri 11:37:36 PM 40.8160 -71.8020 70° East 539 620 35,000  Level FlightAware ADS-B
Fri 11:38:16 PM 40.8470 -71.6860 71° East 538 619 35,000 71 Level FlightAware ADS-B
Fri 11:39:01 PM 40.8880 -71.5370 70° East 538 619 35,100 565 Climbing FlightAware ADS-B
Fri 11:39:41 PM 40.9240 -71.4200 68° East 538 619 35,800 1,120 Climbing FlightAware ADS-B
Fri 11:40:16 PM 40.9660 -71.3220 60° Northeast 532 612 36,500 1,304 Climbing FlightAware ADS-B
Fri 11:40:27 PM 40.9841 -71.2855 57° Northeast 531 611 36,800 698 Climbing FlightAware ADS-B
Fri 11:40:59 PM 41.0305 -71.2014 54° Northeast 535 616 37,000 188 Climbing FlightAware ADS-B
Fri 11:41:31 PM 41.0769 -71.1166 54° Northeast 538 619 37,000  Level FlightAware ADS-B
Fri 11:42:09 PM 41.1321 -71.0155 54° Northeast 535 616 37,000  Level FlightAware ADS-B
Fri 11:42:39 PM 41.1761 -70.9352 54° Northeast 532 612 37,000  Level FlightAware ADS-B
Fri 11:45:36 PM 41.4190 -70.4910 54° Northeast 522 601 37,000  Level FlightAware ADS-B
Fri 11:46:51 PM 41.5270 -70.2930 54° Northeast 520 598 37,000  Level FlightAware ADS-B
Fri 11:47:36 PM 41.5730 -70.2070 54° Northeast 521 600 37,000  Level FlightAware ADS-B
Fri 11:48:36 PM 41.6597 -70.0308 54° Northeast 519 597 37,000  Level Boston Center
Fri 11:49:35 PM 41.7378 -69.8722 57° Northeast 524 603 37,000  Level Boston Center
Fri 11:55:11 PM 42.2090 -68.9620 57° Northeast 521 600 37,000  Level FlightAware ADS-B
Fri 11:56:26 PM 42.3100 -68.7600 56° Northeast 520 598 37,000  Level FlightAware ADS-B
Fri 11:57:36 PM 42.4040 -68.5700 56° Northeast 520 598 37,000  Level FlightAware ADS-B
Fri 11:58:46 PM 42.4980 -68.3800 56° Northeast 521 600 37,000  Level FlightAware ADS-B
Fri 11:59:56 PM 42.5910 -68.1910 56° Northeast 523 602 37,000  Level FlightAware ADS-B
Sat 12:01:16 AM 42.6980 -67.9690 57° Northeast 526 605 37,000  Level FlightAware ADS-B
Sat 12:02:01 AM 42.7500 -67.8630 56° Northeast 526 605 37,000  Level FlightAware ADS-B
Sat 12:02:41 AM 42.7970 -67.7690 56° Northeast 526 605 37,000  Level FlightAware ADS-B
Sat 12:03:26 AM 42.8660 -67.6170 58° Northeast 529 609 37,000  Level FlightAware ADS-B
Sat 12:04:06 AM 42.9210 -67.5020 57° Northeast 530 610 37,000  Level FlightAware ADS-B
Sat 12:05:01 AM 42.9910 -67.3550 57° Northeast 531 611 37,000  Level FlightAware ADS-B
Sat 12:05:46 AM 43.0540 -67.2220 57° Northeast 37,000  Level FlightAware ADS-B
Sat 12:06:31 AM 43.1120 -67.0970 58° Northeast 528 608 37,000  Level FlightAware ADS-B
Sat 12:07:26 AM 43.1800 -66.9330 60° Northeast 530 610 37,000  Level FlightAware ADS-B
Sat 12:08:06 AM 43.2210 -66.7990 67° East 534 615 37,000  Level FlightAware ADS-B
Sat 12:08:46 AM 43.2600 -66.6770 66° East 533 613 37,000  Level FlightAware ADS-B
Sat 12:09:31 AM 43.3020 -66.5450 66° East 532 612 37,000  Level FlightAware ADS-B
Sat 12:10:11 AM 43.3400 -66.4270 66° East 532 612 37,000  Level FlightAware ADS-B
Sat 12:10:56 AM 43.3870 -66.2770 67° East 531 611 37,000  Level FlightAware ADS-B
Sat 12:11:41 AM 43.4310 -66.1340 67° East 531 611 37,000  Level FlightAware ADS-B
Sat 12:12:21 AM 43.4690 -66.0130 67° East 531 611 37,000  Level FlightAware ADS-B
Sat 12:13:06 AM 43.5130 -65.8700 67° East 528 608 37,000  Level FlightAware ADS-B
Sat 12:13:46 AM 43.5510 -65.7470 67° East 529 609 37,000  Level FlightAware ADS-B
Sat 12:14:26 AM 43.5890 -65.6190 68° East 530 610 37,000  Level FlightAware ADS-B
Sat 12:15:11 AM 43.6310 -65.4810 67° East 530 610 37,000  Level FlightAware ADS-B
Sat 12:15:51 AM 43.6690 -65.3570 67° East 529 609 37,000  Level FlightAware ADS-B
Sat 12:16:36 AM 43.7120 -65.2130 68° East 528 608 37,000  Level FlightAware ADS-B
Sat 12:17:16 AM 43.7490 -65.0900 67° East 526 605 37,000  Level FlightAware ADS-B
Sat 12:17:56 AM 43.7870 -64.9630 67° East 526 605 37,000  Level FlightAware ADS-B
Sat 12:18:41 AM 43.8280 -64.8230 68° East 525 604 37,000  Level FlightAware ADS-B
Sat 12:19:21 AM 43.8650 -64.6980 68° East 528 608 37,000  Level FlightAware ADS-B
Sat 12:20:01 AM 43.9020 -64.5700 68° East 528 608 37,000  Level FlightAware ADS-B
Sat 12:20:41 AM 43.9360 -64.4500 68° East 528 608 37,000  Level FlightAware ADS-B
Sat 12:21:36 AM 43.9860 -64.2760 68° East 528 608 37,000  Level FlightAware ADS-B
Sat 12:22:16 AM 44.0180 -64.1690 67° East 528 608 37,000  Level FlightAware ADS-B
Sat 12:23:06 AM 44.0560 -64.0350 68° East 528 608 37,000  Level FlightAware ADS-B
Sat 12:23:46 AM 44.0880 -63.9280 67° East 528 608 37,000  Level FlightAware ADS-B
Sat 12:24:26 AM 44.1190 -63.8210 68° East 528 608 37,000  Level FlightAware ADS-B
Sat 12:25:06 AM 44.1500 -63.7130 68° East 528 608 37,000  Level FlightAware ADS-B
Sat 12:25:46 AM 44.1810 -63.6060 68° East 528 608 37,000  Level FlightAware ADS-B
Sat 12:26:36 AM 44.2200 -63.4720 68° East 528 608 37,000  Level FlightAware ADS-B
Sat 12:27:16 AM 44.2510 -63.3640 68° East 528 608 37,000  Level FlightAware ADS-B
Sat 12:27:56 AM 44.2820 -63.2570 68° East 528 608 37,000  Level FlightAware ADS-B
Sat 12:28:36 AM 44.3130 -63.1490 68° East 528 608 37,000  Level FlightAware ADS-B
Sat 12:29:16 AM 44.3440 -63.0420 68° East 528 608 37,000  Level FlightAware ADS-B
Sat 12:30:06 AM 44.3830 -62.9070 68° East 528 608 37,000  Level FlightAware ADS-B
Sat 12:30:46 AM 44.4140 -62.7990 68° East 528 608 37,000  Level FlightAware ADS-B
Sat 12:31:09 AM 44.4833 -62.4500 68° East 530 610 37,000  Level Moncton Center
Sat 12:32:09 AM 44.5500 -62.2333 67° East 530 610 37,000  Level Moncton Center
Sat 12:33:09 AM 44.6000 -62.0500 69° East 530 610 37,000  Level Moncton Center
Sat 12:34:09 AM 44.6500 -61.8667 69° East 530 610 37,000  Level Moncton Center
Sat 12:35:09 AM 44.7000 -61.6667 71° East 530 610 37,000  Level Moncton Center
Sat 12:36:09 AM 44.7500 -61.4833 69° East 520 598 37,000  Level Moncton Center
Sat 12:37:09 AM 44.8000 -61.2833 71° East 530 610 37,000  Level Moncton Center
Sat 12:38:09 AM 44.8333 -61.1000 76° East 520 598 37,000  Level Moncton Center
Sat 12:39:09 AM 44.9000 -60.8833 66° East 530 610 37,000  Level Moncton Center
Sat 12:40:09 AM 44.9500 -60.6833 70° East 530 610 37,000  Level Moncton Center
Sat 12:45:16 AM 45.1780 -59.7640 70° East 536 617 37,000  Level FlightAware ADS-B
Sat 12:46:21 AM 45.2270 -59.5590 71° East 535 616 37,000  Level FlightAware ADS-B
Sat 12:47:06 AM 45.2680 -59.3850 71° East 536 617 37,000  Level FlightAware ADS-B
Sat 12:48:16 AM 45.3210 -59.1610 71° East 535 616 37,000  Level FlightAware ADS-B
Sat 12:49:01 AM 45.3550 -59.0130 72° East 535 616 37,000  Level FlightAware ADS-B
Sat 12:49:41 AM 45.3870 -58.8790 71° East 536 617 37,000  Level FlightAware ADS-B
Sat 12:50:26 AM 45.4200 -58.7330 72° East 535 616 37,000  Level FlightAware ADS-B
Sat 12:51:06 AM 45.4510 -58.6020 71° East 534 615 37,000  Level FlightAware ADS-B
Sat 12:51:46 AM 45.4800 -58.4720 72° East 535 616 37,000  Level FlightAware ADS-B
Sat 12:52:26 AM 45.5060 -58.3580 72° East 535 616 37,000  Level FlightAware ADS-B
Sat 12:53:06 AM 45.5320 -58.2430 72° East 535 616 37,000  Level FlightAware ADS-B
Sat 12:53:56 AM 45.5650 -58.1010 72° East 535 616 37,000  Level FlightAware ADS-B
Sat 12:54:36 AM 45.5910 -57.9860 72° East 535 616 37,000  Level FlightAware ADS-B
Sat 12:55:16 AM 45.6170 -57.8720 72° East 535 616 37,000  Level FlightAware ADS-B
Sat 12:55:56 AM 45.6430 -57.7570 72° East 535 616 37,000  Level FlightAware ADS-B
Sat 12:56:36 AM 45.6690 -57.6430 72° East 535 616 37,000  Level FlightAware ADS-B
Sat 12:57:16 AM 45.6950 -57.5280 72° East 535 616 37,000  Level FlightAware ADS-B
Sat 12:58:06 AM 45.7270 -57.3850 72° East 535 616 37,000  Level FlightAware ADS-B
Sat 12:58:46 AM 45.7530 -57.2700 72° East 535 616 37,000  Level FlightAware ADS-B
Sat 12:59:31 AM 45.8390 -56.8430 74° East 536 617 37,000  Level FlightAware ADS-B
Sat 01:00:21 AM 45.8740 -56.6720 74° East 536 617 37,000  Level FlightAware ADS-B
Sat 01:01:01 AM 45.8990 -56.5560 73° East 536 617 37,000  Level FlightAware ADS-B
Sat 01:01:51 AM 45.9300 -56.4110 73° East 536 617 37,000  Level FlightAware ADS-B
Sat 01:02:31 AM 45.9550 -56.2960 73° East 536 617 37,000  Level FlightAware ADS-B
Sat 01:03:16 AM 45.9980 -56.0660 75° East 536 617 37,000  Level FlightAware ADS-B
Sat 01:03:56 AM 46.0240 -55.9310 74° East 535 616 37,000  Level FlightAware ADS-B
Sat 01:04:46 AM 46.0560 -55.7700 74° East 535 616 37,000  Level FlightAware ADS-B
Sat 01:05:26 AM 46.0790 -55.6530 74° East 535 616 37,000  Level FlightAware ADS-B
Sat 01:06:16 AM 46.1080 -55.5070 74° East 535 616 37,000  Level FlightAware ADS-B
Sat 01:06:56 AM 46.1320 -55.3910 73° East 535 616 37,000  Level FlightAware ADS-B
Sat 01:07:36 AM 46.1550 -55.2740 74° East 535 616 37,000  Level FlightAware ADS-B
Sat 01:08:16 AM 46.1780 -55.1570 74° East 535 616 37,000  Level FlightAware ADS-B
Sat 01:08:56 AM 46.2010 -55.0400 74° East 535 616 37,000  Level FlightAware ADS-B
Sat 01:09:46 AM 46.2300 -54.8940 74° East 535 616 37,000  Level FlightAware ADS-B
Sat 01:10:26 AM 46.2530 -54.7770 74° East 535 616 37,000  Level FlightAware ADS-B
Sat 01:11:11 AM 46.3050 -54.4430 77° East 533 613 37,000  Level FlightAware ADS-B
Sat 01:11:51 AM 46.3300 -54.3060 75° East 533 613 37,000  Level FlightAware ADS-B
Sat 01:12:36 AM 46.3570 -54.1510 76° East 534 615 37,000  Level FlightAware ADS-B
Sat 01:13:16 AM 46.3810 -54.0110 76° East 534 615 37,000  Level FlightAware ADS-B
Sat 01:13:56 AM 46.4050 -53.8730 76° East 535 616 37,000  Level FlightAware ADS-B
Sat 01:14:41 AM 46.4310 -53.7190 76° East 536 617 37,000  Level FlightAware ADS-B
Sat 01:15:21 AM 46.4550 -53.5730 77° East 536 617 37,000  Level FlightAware ADS-B
Sat 01:16:06 AM 46.4810 -53.4200 76° East 537 618 37,000  Level FlightAware ADS-B
Sat 01:16:46 AM 46.5050 -53.2800 76° East 536 617 37,000  Level FlightAware ADS-B
Sat 01:17:26 AM 46.5280 -53.1420 76° East 535 616 37,000  Level FlightAware ADS-B
Sat 01:18:06 AM 46.5510 -53.0030 76° East 535 616 37,000  Level FlightAware ADS-B
Sat 01:18:41 AM 46.5710 -52.8870 76° East 535 616 37,000  Level FlightAware ADS-B
Sat 01:19:31 AM 46.6010 -52.7030 77° East 535 616 37,000  Level FlightAware ADS-B
Sat 01:20:16 AM 46.6260 -52.5480 77° East 534 615 37,000 71 Level FlightAware ADS-B
Sat 01:20:56 AM 46.6480 -52.4080 77° East 537 618 37,100 635 Climbing FlightAware ADS-B
Sat 01:21:41 AM 46.6730 -52.2480 77° East 536 617 37,900 635 Climbing FlightAware ADS-B
Sat 01:22:21 AM 46.6950 -52.1060 77° East 543 625 38,000 75 Climbing FlightAware ADS-B
Sat 01:23:01 AM 46.7170 -51.9630 77° East 541 623 38,000  Level FlightAware ADS-B
Sat 01:23:46 AM 46.7410 -51.8060 77° East 534 615 38,000  Level FlightAware ADS-B
Sat 01:24:26 AM 46.7620 -51.6700 77° East 531 611 38,000  Level FlightAware ADS-B
Sat 01:25:11 AM 46.7860 -51.5080 78° East 528 608 38,000  Level FlightAware ADS-B
Sat 01:25:56 AM 46.8080 -51.3670 77° East 528 608 38,000  Level FlightAware ADS-B
Sat 01:26:46 AM 46.8310 -51.2190 77° East 528 608 38,000  Level FlightAware ADS-B
Sat 01:27:26 AM 46.8500 -51.1010 77° East 528 608 38,000  Level FlightAware ADS-B
Sat 01:28:06 AM 46.8690 -50.9820 77° East 528 608 38,000  Level FlightAware ADS-B
Sat 01:28:46 AM 46.8870 -50.8640 77° East 528 608 38,000  Level FlightAware ADS-B
Sat 01:29:36 AM 46.9110 -50.7160 77° East 528 608 38,000  Level FlightAware ADS-B
Sat 01:30:16 AM 46.9290 -50.5970 77° East 528 608 38,000  Level FlightAware ADS-B
Sat 01:30:56 AM 46.9480 -50.4790 77° East 528 608 38,000  Level FlightAware ADS-B
Sat 01:31:56 AM 46.9760 -50.3010 77° East 528 608 38,000  Level FlightAware ADS-B
Sat 01:32:36 AM 46.9950 -50.1820 77° East 528 608 38,000  Level FlightAware ADS-B
Sat 01:33:16 AM 47.0130 -50.0640 77° East 528 608 38,000  Level FlightAware ADS-B
Sat 01:33:56 AM 47.0320 -49.9450 77° East 528 608 38,000  Level FlightAware ADS-B
Sat 01:34:00 AM 47.0000 -50.0000 70° East 512 589 38,000  Level ETMS Enhanced Traffic Management System
Sat 01:34:46 AM 47.0550 -49.7970 77° East 528 608 38,000  Level FlightAware ADS-B
Sat 01:35:26 AM 47.0740 -49.6780 77° East 528 608 38,000  Level FlightAware ADS-B
Sat 01:38:00 AM 47.1963 -49.1830 70° East  Level FlightAware Approximate
Sat 01:39:00 AM 47.2434 -48.9895 70° East  Level FlightAware Approximate
Sat 01:40:00 AM 47.3848 -48.4220 71° East 512 589 38,000  Level FlightAware Transoceanic
Sat 01:41:00 AM 47.4314 -48.2232 71° East 512 589 38,000  Level FlightAware Transoceanic
Sat 01:42:00 AM 47.4776 -48.0240 71° East 512 589 38,000  Level FlightAware Transoceanic
Sat 01:43:00 AM 47.5235 -47.8245 71° East 512 589 38,000  Level FlightAware Transoceanic
Sat 01:44:00 AM 47.5691 -47.6246 71° East 512 589 38,000  Level FlightAware Transoceanic
Sat 01:45:00 AM 47.6143 -47.4243 72° East 512 589 38,000  Level FlightAware Transoceanic
Sat 01:46:00 AM 47.6591 -47.2237 72° East 512 589 38,000  Level FlightAware Transoceanic
Sat 01:47:00 AM 47.7036 -47.0228 72° East 512 589 38,000  Level FlightAware Transoceanic
Sat 01:48:00 AM 47.7477 -46.8215 72° East 512 589 38,000  Level FlightAware Transoceanic
Sat 01:49:00 AM 47.7915 -46.6199 72° East 512 589 38,000  Level FlightAware Transoceanic
Sat 01:50:00 AM 47.8349 -46.4180 72° East 512 589 38,000  Level FlightAware Transoceanic
Sat 01:51:00 AM 47.8780 -46.2157 72° East 512 589 38,000  Level FlightAware Transoceanic
Sat 01:52:00 AM 47.9207 -46.0131 73° East 512 589 38,000  Level FlightAware Transoceanic
Sat 01:53:00 AM 47.9631 -45.8101 73° East 512 589 38,000  Level FlightAware Transoceanic
Sat 01:54:00 AM 48.0051 -45.6068 73° East 512 589 38,000  Level FlightAware Transoceanic
Sat 01:55:00 AM 48.0468 -45.4032 73° East 512 589 38,000  Level FlightAware Transoceanic
Sat 01:56:00 AM 48.0881 -45.1993 73° East 512 589 38,000  Level FlightAware Transoceanic
Sat 01:57:00 AM 48.1290 -44.9950 73° East 512 589 38,000  Level FlightAware Transoceanic
Sat 01:58:00 AM 48.1695 -44.7904 74° East 512 589 38,000  Level FlightAware Transoceanic
Sat 01:59:00 AM 48.2097 -44.5855 74° East 512 589 38,000  Level FlightAware Transoceanic
Sat 02:00:00 AM 48.2496 -44.3802 74° East 512 589 38,000  Level FlightAware Transoceanic
Sat 02:01:00 AM 48.2890 -44.1747 74° East 512 589 38,000  Level FlightAware Transoceanic
Sat 02:02:00 AM 48.3282 -43.9688 74° East 512 589 38,000  Level FlightAware Transoceanic
Sat 02:03:00 AM 48.3669 -43.7626 74° East 512 589 38,000  Level FlightAware Transoceanic
Sat 02:04:00 AM 48.4053 -43.5561 74° East 512 589 38,000  Level FlightAware Transoceanic
Sat 02:05:00 AM 48.4432 -43.3493 75° East 512 589 38,000  Level FlightAware Transoceanic
Sat 02:06:00 AM 48.4809 -43.1422 75° East 512 589 38,000  Level FlightAware Transoceanic
Sat 02:07:00 AM 48.5181 -42.9348 75° East 512 589 38,000  Level FlightAware Transoceanic
Sat 02:08:00 AM 48.5550 -42.7271 75° East 512 589 38,000  Level FlightAware Transoceanic
Sat 02:09:00 AM 48.5915 -42.5190 75° East 512 589 38,000  Level FlightAware Transoceanic
Sat 02:10:00 AM 48.6276 -42.3107 75° East 512 589 38,000  Level FlightAware Transoceanic
Sat 02:11:00 AM 48.6634 -42.1021 76° East 512 589 38,000  Level FlightAware Transoceanic
Sat 02:12:00 AM 48.6988 -41.8931 76° East 512 589 38,000  Level FlightAware Transoceanic
Sat 02:13:00 AM 48.7338 -41.6839 76° East 512 589 38,000  Level FlightAware Transoceanic
Sat 02:14:00 AM 48.7684 -41.4744 76° East 512 589 38,000  Level FlightAware Transoceanic
Sat 02:15:00 AM 48.8026 -41.2646 76° East 512 589 38,000  Level FlightAware Transoceanic
Sat 02:16:00 AM 48.8365 -41.0546 76° East 512 589 38,000  Level FlightAware Transoceanic
Sat 02:17:00 AM 48.8699 -40.8442 76° East 512 589 38,000  Level FlightAware Transoceanic
Sat 02:18:00 AM 48.9030 -40.6336 77° East 512 589 38,000  Level FlightAware Transoceanic
Sat 02:19:00 AM 48.9357 -40.4226 77° East 512 589 38,000  Level FlightAware Transoceanic
Sat 02:20:00 AM 48.9681 -40.2115 77° East 512 589 38,000  Level FlightAware Transoceanic
Sat 02:21:00 AM 48.9994 -40.0042 77° East  Level FlightAware Approximate
Sat 02:22:00 AM 49.0304 -39.7967 77° East  Level FlightAware Approximate
Sat 02:23:00 AM 49.0285 -39.8004 78° East  Level FlightAware Approximate
Sat 02:24:00 AM 49.0579 -39.5922 78° East  Level FlightAware Approximate
Sat 02:24:00 AM 49.0000 -40.0000 77° East 482 555 38,000  Level ETMS Enhanced Traffic Management System
Sat 02:25:00 AM 49.0868 -39.3838 78° East  Level FlightAware Approximate
Sat 02:26:00 AM 49.1154 -39.1751 78° East  Level FlightAware Approximate
Sat 02:27:00 AM 49.1437 -38.9662 78° East  Level FlightAware Approximate
Sat 02:28:00 AM 49.1715 -38.7570 78° East  Level FlightAware Approximate
Sat 02:29:00 AM 49.1990 -38.5476 79° East  Level FlightAware Approximate
Sat 02:30:00 AM 49.1952 -38.5988 79° East 482 555 38,000  Level FlightAware Transoceanic
Sat 02:31:00 AM 49.2216 -38.3977 79° East 482 555 38,000  Level FlightAware Transoceanic
Sat 02:32:00 AM 49.2478 -38.1965 79° East 482 555 38,000  Level FlightAware Transoceanic
Sat 02:33:00 AM 49.2736 -37.9950 79° East 482 555 38,000  Level FlightAware Transoceanic
Sat 02:34:00 AM 49.2990 -37.7933 79° East 482 555 38,000  Level FlightAware Transoceanic
Sat 02:35:00 AM 49.3241 -37.5914 79° East 482 555 38,000  Level FlightAware Transoceanic
Sat 02:36:00 AM 49.3489 -37.3893 79° East 482 555 38,000  Level FlightAware Transoceanic
Sat 02:37:00 AM 49.3732 -37.1870 80° East 482 555 38,000  Level FlightAware Transoceanic
Sat 02:38:00 AM 49.3973 -36.9845 80° East 482 555 38,000  Level FlightAware Transoceanic
Sat 02:39:00 AM 49.4210 -36.7818 80° East 482 555 38,000  Level FlightAware Transoceanic
Sat 02:40:00 AM 49.4443 -36.5789 80° East 482 555 38,000  Level FlightAware Transoceanic
Sat 02:41:00 AM 49.4672 -36.3758 80° East 482 555 38,000  Level FlightAware Transoceanic
Sat 02:42:00 AM 49.4899 -36.1725 80° East 482 555 38,000  Level FlightAware Transoceanic
Sat 02:43:00 AM 49.5121 -35.9690 81° East 482 555 38,000  Level FlightAware Transoceanic
Sat 02:44:00 AM 49.5340 -35.7654 81° East 482 555 38,000  Level FlightAware Transoceanic
Sat 02:45:00 AM 49.5555 -35.5616 81° East 482 555 38,000  Level FlightAware Transoceanic
Sat 02:46:00 AM 49.5767 -35.3576 81° East 482 555 38,000  Level FlightAware Transoceanic
Sat 02:47:00 AM 49.5976 -35.1534 81° East 482 555 38,000  Level FlightAware Transoceanic
Sat 02:48:00 AM 49.6180 -34.9490 81° East 482 555 38,000  Level FlightAware Transoceanic
Sat 02:49:00 AM 49.6381 -34.7445 81° East 482 555 38,000  Level FlightAware Transoceanic
Sat 02:50:00 AM 49.6579 -34.5398 82° East 482 555 38,000  Level FlightAware Transoceanic
Sat 02:51:00 AM 49.6772 -34.3349 82° East 482 555 38,000  Level FlightAware Transoceanic
Sat 02:52:00 AM 49.6963 -34.1299 82° East 482 555 38,000  Level FlightAware Transoceanic
Sat 02:53:00 AM 49.7149 -33.9247 82° East 482 555 38,000  Level FlightAware Transoceanic
Sat 02:54:00 AM 49.7332 -33.7194 82° East 482 555 38,000  Level FlightAware Transoceanic
Sat 02:55:00 AM 49.7512 -33.5139 82° East 482 555 38,000  Level FlightAware Transoceanic
Sat 02:56:00 AM 49.7687 -33.3083 83° East 482 555 38,000  Level FlightAware Transoceanic
Sat 02:57:00 AM 49.7859 -33.1025 83° East 482 555 38,000  Level FlightAware Transoceanic
Sat 02:58:00 AM 49.8028 -32.8966 83° East 482 555 38,000  Level FlightAware Transoceanic
Sat 02:59:00 AM 49.8192 -32.6905 83° East 482 555 38,000  Level FlightAware Transoceanic
Sat 03:00:00 AM 49.8354 -32.4843 83° East 482 555 38,000  Level FlightAware Transoceanic
Sat 03:01:00 AM 49.8511 -32.2779 83° East 482 555 38,000  Level FlightAware Transoceanic
Sat 03:02:00 AM 49.8665 -32.0714 83° East 482 555 38,000  Level FlightAware Transoceanic
Sat 03:03:00 AM 49.8815 -31.8648 84° East 482 555 38,000  Level FlightAware Transoceanic
Sat 03:04:00 AM 49.8961 -31.6581 84° East 482 555 38,000  Level FlightAware Transoceanic
Sat 03:05:00 AM 49.9104 -31.4512 84° East 482 555 38,000  Level FlightAware Transoceanic
Sat 03:06:00 AM 49.9243 -31.2443 84° East 482 555 38,000  Level FlightAware Transoceanic
Sat 03:07:00 AM 49.9379 -31.0372 84° East 482 555 38,000  Level FlightAware Transoceanic
Sat 03:08:00 AM 49.9510 -30.8300 84° East 482 555 38,000  Level FlightAware Transoceanic
Sat 03:09:00 AM 49.9638 -30.6226 85° East 482 555 38,000  Level FlightAware Transoceanic
Sat 03:10:00 AM 49.9762 -30.4152 85° East 482 555 38,000  Level FlightAware Transoceanic
Sat 03:11:00 AM 49.9883 -30.2076 85° East 482 555 38,000  Level FlightAware Transoceanic
Sat 03:12:00 AM 50.0005 -29.9913 85° East  Level FlightAware Approximate
Sat 03:13:00 AM 50.0055 -29.9848 61° Northeast  Level FlightAware Approximate
Sat 03:14:00 AM 50.0735 -29.7951 61° Northeast  Level FlightAware Approximate
Sat 03:15:00 AM 50.1413 -29.6048 61° Northeast  Level FlightAware Approximate
Sat 03:16:00 AM 50.2088 -29.4140 61° Northeast  Level FlightAware Approximate
Sat 03:17:00 AM 50.2759 -29.2226 61° Northeast  Level FlightAware Approximate
Sat 03:17:00 AM 50.0000 -30.0000 60° Northeast 507 583 38,000  Level ETMS Enhanced Traffic Management System
Sat 03:18:00 AM 50.3427 -29.0307 61° Northeast  Level FlightAware Approximate
Sat 03:19:00 AM 50.4092 -28.8383 61° Northeast  Level FlightAware Approximate
Sat 03:20:00 AM 50.4749 -28.6449 62° Northeast  Level FlightAware Approximate
Sat 03:21:00 AM 50.5403 -28.4509 62° Northeast  Level FlightAware Approximate
Sat 03:22:00 AM 50.6053 -28.2564 62° Northeast  Level FlightAware Approximate
Sat 03:23:00 AM 50.6699 -28.0613 62° Northeast  Level FlightAware Approximate
Sat 03:24:00 AM 50.8117 -27.6734 62° Northeast 507 583 38,000  Level FlightAware Transoceanic
Sat 03:25:00 AM 50.8772 -27.4759 62° Northeast 507 583 38,000  Level FlightAware Transoceanic
Sat 03:26:00 AM 50.9424 -27.2779 63° Northeast 507 583 38,000  Level FlightAware Transoceanic
Sat 03:27:00 AM 51.0073 -27.0793 63° Northeast 507 583 38,000  Level FlightAware Transoceanic
Sat 03:28:00 AM 51.0718 -26.8801 63° Northeast 507 583 38,000  Level FlightAware Transoceanic
Sat 03:29:00 AM 51.1359 -26.6804 63° Northeast 507 583 38,000  Level FlightAware Transoceanic
Sat 03:30:00 AM 51.1998 -26.4802 63° Northeast 507 583 38,000  Level FlightAware Transoceanic
Sat 03:31:00 AM 51.2633 -26.2794 63° Northeast 507 583 38,000  Level FlightAware Transoceanic
Sat 03:32:00 AM 51.3264 -26.0780 63° Northeast 507 583 38,000  Level FlightAware Transoceanic
Sat 03:33:00 AM 51.3892 -25.8761 64° Northeast 507 583 38,000  Level FlightAware Transoceanic
Sat 03:34:00 AM 51.4517 -25.6736 64° Northeast 507 583 38,000  Level FlightAware Transoceanic
Sat 03:35:00 AM 51.5138 -25.4706 64° Northeast 507 583 38,000  Level FlightAware Transoceanic
Sat 03:36:00 AM 51.5755 -25.2670 64° Northeast 507 583 38,000  Level FlightAware Transoceanic
Sat 03:37:00 AM 51.6369 -25.0629 64° Northeast 507 583 38,000  Level FlightAware Transoceanic
Sat 03:38:00 AM 51.6980 -24.8582 64° Northeast 507 583 38,000  Level FlightAware Transoceanic
Sat 03:39:00 AM 51.7586 -24.6530 65° Northeast 507 583 38,000  Level FlightAware Transoceanic
Sat 03:40:00 AM 51.8190 -24.4472 65° Northeast 507 583 38,000  Level FlightAware Transoceanic
Sat 03:41:00 AM 51.8789 -24.2409 65° Northeast 507 583 38,000  Level FlightAware Transoceanic
Sat 03:42:00 AM 51.9385 -24.0340 65° Northeast 507 583 38,000  Level FlightAware Transoceanic
Sat 03:43:00 AM 51.9978 -23.8265 65° Northeast 507 583 38,000  Level FlightAware Transoceanic
Sat 03:44:00 AM 52.0567 -23.6185 65° Northeast 507 583 38,000  Level FlightAware Transoceanic
Sat 03:45:00 AM 52.1152 -23.4100 66° East 507 583 38,000  Level FlightAware Transoceanic
Sat 03:46:00 AM 52.1733 -23.2010 66° East 507 583 38,000  Level FlightAware Transoceanic
Sat 03:47:00 AM 52.2311 -22.9913 66° East 507 583 38,000  Level FlightAware Transoceanic
Sat 03:48:00 AM 52.2885 -22.7812 66° East 507 583 38,000  Level FlightAware Transoceanic
Sat 03:49:00 AM 52.3455 -22.5705 66° East 507 583 38,000  Level FlightAware Transoceanic
Sat 03:50:00 AM 52.4022 -22.3592 66° East 507 583 38,000  Level FlightAware Transoceanic
Sat 03:51:00 AM 52.4584 -22.1474 67° East 507 583 38,000  Level FlightAware Transoceanic
Sat 03:52:00 AM 52.5143 -21.9351 67° East 507 583 38,000  Level FlightAware Transoceanic
Sat 03:53:00 AM 52.5698 -21.7222 67° East 507 583 38,000  Level FlightAware Transoceanic
Sat 03:54:00 AM 52.6250 -21.5088 67° East 507 583 38,000  Level FlightAware Transoceanic
Sat 03:55:00 AM 52.6797 -21.2949 67° East 507 583 38,000  Level FlightAware Transoceanic
Sat 03:56:00 AM 52.7341 -21.0804 67° East 507 583 38,000  Level FlightAware Transoceanic
Sat 03:57:00 AM 52.7880 -20.8654 68° East 507 583 38,000  Level FlightAware Transoceanic
Sat 03:58:00 AM 52.8416 -20.6498 68° East 507 583 38,000  Level FlightAware Transoceanic
Sat 03:59:00 AM 52.8948 -20.4337 68° East 507 583 38,000  Level FlightAware Transoceanic
Sat 04:00:00 AM 52.9476 -20.2171 68° East 507 583 38,000 29 Level FlightAware Transoceanic
Sat 04:01:00 AM 52.9995 -20.0020 68° East  Level FlightAware Approximate
Sat 04:02:00 AM 53.0510 -19.7862 68° East  Level FlightAware Approximate
Sat 04:03:00 AM 52.9523 -19.7866 110° East  Level FlightAware Approximate
Sat 04:04:00 AM 52.9034 -19.5698 110° East  Level FlightAware Approximate
Sat 04:05:00 AM 52.8540 -19.3534 111° Southeast  Level FlightAware Approximate
Sat 04:06:00 AM 52.8043 -19.1376 111° Southeast  Level FlightAware Approximate
Sat 04:07:00 AM 52.7541 -18.9222 111° Southeast  Level FlightAware Approximate
Sat 04:08:00 AM 52.7036 -18.7073 111° Southeast  Level FlightAware Approximate
Sat 04:09:00 AM 52.6527 -18.4930 111° Southeast  Level FlightAware Approximate
Sat 04:10:00 AM 52.6014 -18.2791 111° Southeast  Level FlightAware Approximate
Sat 04:11:00 AM 52.5497 -18.0657 112° Southeast  Level FlightAware Approximate
Sat 04:12:00 AM 52.4976 -17.8528 112° Southeast  Level FlightAware Approximate
Sat 04:13:00 AM 52.4452 -17.6405 112° Southeast  Level FlightAware Approximate
Sat 04:14:00 AM 52.3923 -17.4286 112° Southeast  Level FlightAware Approximate
Sat 04:15:00 AM 52.3391 -17.2173 112° Southeast  Level FlightAware Approximate
Sat 04:16:00 AM 52.2856 -17.0064 112° Southeast  Level FlightAware Approximate
Sat 04:17:00 AM 52.2316 -16.7961 113° Southeast  Level FlightAware Approximate
Sat 04:18:00 AM 52.1773 -16.5863 113° Southeast  Level FlightAware Approximate
Sat 04:19:00 AM 52.1226 -16.3770 113° Southeast  Level FlightAware Approximate
Sat 04:20:00 AM 52.0675 -16.1682 113° Southeast  Level FlightAware Approximate
Sat 04:21:00 AM 52.0121 -15.9599 113° Southeast  Level FlightAware Approximate
Sat 04:22:00 AM 51.9563 -15.7522 113° Southeast  Level FlightAware Approximate
Sat 04:23:00 AM 51.9001 -15.5449 114° Southeast  Level FlightAware Approximate
Sat 04:24:00 AM 51.8436 -15.3382 114° Southeast  Level FlightAware Approximate
Sat 04:25:00 AM 51.7867 -15.1320 114° Southeast  Level FlightAware Approximate
Sat 04:26:00 AM 51.7289 -14.9268 115° Southeast  Level FlightAware Approximate
Sat 04:27:00 AM 51.6699 -14.7227 115° Southeast  Level FlightAware Approximate
Sat 04:28:00 AM 51.6105 -14.5191 115° Southeast  Level FlightAware Approximate
Sat 04:29:00 AM 51.5507 -14.3161 115° Southeast  Level FlightAware Approximate
Sat 04:30:00 AM 51.4906 -14.1136 115° Southeast  Level FlightAware Approximate
Sat 04:31:00 AM 51.4311 -13.9110 115° Southeast  Level FlightAware Approximate
Sat 04:32:00 AM 51.3718 -13.7084 115° Southeast  Level FlightAware Approximate
Sat 04:33:00 AM 51.3122 -13.5064 115° Southeast  Level FlightAware Approximate
Sat 04:33:07 AM 52.6840 -12.8980 115° Southeast 546 628 39,000  Level FlightAware ADS-B
Sat 04:33:52 AM 52.6750 -12.7140 95° East 542 624 39,000  Level FlightAware ADS-B
Sat 04:34:32 AM 52.6670 -12.5540 95° East 540 621 39,000  Level FlightAware ADS-B
Sat 04:35:12 AM 52.6590 -12.3880 94° East 538 619 39,000  Level FlightAware ADS-B
Sat 04:35:57 AM 52.6500 -12.2050 95° East 537 618 39,000  Level FlightAware ADS-B
Sat 04:36:37 AM 52.6410 -12.0400 95° East 538 619 39,000  Level FlightAware ADS-B
Sat 04:37:17 AM 52.6320 -11.8810 95° East 538 619 39,000  Level FlightAware ADS-B
Sat 04:38:02 AM 52.6220 -11.7050 95° East 539 620 39,000  Level FlightAware ADS-B
Sat 04:38:37 AM 52.6150 -11.5720 95° East 540 621 39,000  Level FlightAware ADS-B
Sat 04:39:27 AM 52.6030 -11.3650 95° East 541 623 39,000  Level FlightAware ADS-B
Sat 04:40:02 AM 52.5930 -11.2040 96° East 542 624 39,000  Level FlightAware ADS-B
Sat 04:40:47 AM 52.5820 -11.0210 96° East 544 626 39,000  Level FlightAware ADS-B
Sat 04:41:27 AM 52.5720 -10.8670 96° East 546 628 39,000  Level FlightAware ADS-B
Sat 04:42:07 AM 52.5610 -10.6970 96° East 547 629 39,000  Level FlightAware ADS-B
Sat 04:42:47 AM 52.5510 -10.5400 96° East 549 632 39,000  Level FlightAware ADS-B
Sat 04:43:52 AM 52.5320 -10.2600 96° East 550 633 39,000  Level FlightAware ADS-B
Sat 04:44:27 AM 52.5210 -10.1060 97° East 552 635 39,000  Level FlightAware ADS-B
Sat 04:45:12 AM 52.5090 -9.9280 96° East 552 635 39,000  Level FlightAware ADS-B
Sat 04:45:57 AM 52.4960 -9.7430 97° East 552 635 39,000  Level FlightAware ADS-B
Sat 04:46:37 AM 52.4830 -9.5660 97° East 551 634 39,000  Level FlightAware ADS-B
Sat 04:47:22 AM 52.4700 -9.3900 97° East 552 635 39,000  Level FlightAware ADS-B
Sat 04:48:02 AM 52.4580 -9.2250 97° East 551 634 39,000 -978 Level FlightAware ADS-B
Sat 04:48:54 AM 52.4460 -8.9540 97° East 454 522 37,500 -1,286 Descending FlightAware UK
Sat 04:49:12 AM 52.4401 -8.8797 97° East 454 522 37,500 5,000 Level FlightAware UK
Sat 04:49:12 AM 52.4330 -8.9110 97° East 552 635 39,000  Climbing FlightAware ADS-B
Sat 04:49:30 AM 52.4335 -8.8045 97° East 456 525 37,500 -2,500 Descending FlightAware UK
Sat 04:49:48 AM 52.4275 -8.7304 98° East 456 525 37,500 3,333 Level FlightAware UK
Sat 04:49:57 AM 52.4190 -8.7440 98° East 552 635 39,000  Climbing FlightAware ADS-B
Sat 04:50:12 AM 52.4191 -8.6312 98° East 454 522 37,500 -2,727 Descending FlightAware UK
Sat 04:50:30 AM 52.4131 -8.5568 97° East 456 525 37,500 3,600 Level FlightAware UK
Sat 04:50:37 AM 52.4040 -8.5710 97° East 550 633 39,000  Climbing FlightAware ADS-B
Sat 04:50:54 AM 52.4049 -8.4574 97° East 454 522 37,500 -2,571 Descending FlightAware UK
Sat 04:51:12 AM 52.3988 -8.3832 98° East 454 522 37,500 3,214 Level FlightAware UK
Sat 04:51:22 AM 52.3890 -8.3860 98° East 550 633 39,000  Climbing FlightAware ADS-B
Sat 04:51:42 AM 52.3887 -8.2584 98° East 454 522 37,500  Descending FlightAware UK
Sat 04:52:02 AM 52.3760 -8.2210 98° East 552 635 39,000  Climbing FlightAware ADS-B
Sat 04:52:18 AM 52.3766 -8.1097 98° East 452 520 37,500 -2,647 Descending FlightAware UK
Sat 04:52:36 AM 52.3705 -8.0354 98° East 454 522 37,500 4,737 Level FlightAware UK
Sat 04:52:37 AM 52.3650 -8.0960 98° East 551 634 39,000  Climbing FlightAware ADS-B
Sat 04:52:54 AM 52.3641 -7.9611 98° East 454 522 37,500 -2,571 Descending FlightAware UK
Sat 04:53:12 AM 52.3572 -7.8869 99° East 454 522 37,500 2,727 Level FlightAware UK
Sat 04:53:27 AM 52.3450 -7.8680 99° East 551 634 39,000  Climbing FlightAware ADS-B
Sat 04:53:42 AM 52.3454 -7.7638 99° East 456 525 37,500 -2,727 Descending FlightAware UK
Sat 04:54:00 AM 52.3384 -7.6899 99° East 456 525 37,500 3,600 Level FlightAware UK
Sat 04:54:07 AM 52.3300 -7.7110 99° East 550 633 39,000  Climbing FlightAware ADS-B
Sat 04:54:30 AM 52.3273 -7.5669 99° East 454 522 37,500  Descending FlightAware UK
Sat 04:54:52 AM 52.3130 -7.5220 99° East 552 635 39,000  Climbing FlightAware ADS-B
Sat 04:55:12 AM 52.3121 -7.3945 99° East 454 522 37,500  Descending FlightAware UK
Sat 04:55:32 AM 52.2990 -7.3670 99° East 551 634 39,000  Climbing FlightAware ADS-B
Sat 04:55:48 AM 52.2988 -7.2464 99° East 454 522 37,500 -2,647 Descending FlightAware UK
Sat 04:56:06 AM 52.2921 -7.1724 98° East 454 522 37,500 3,750 Level FlightAware UK
Sat 04:56:12 AM 52.2830 -7.1850 98° East 551 634 39,000  Climbing FlightAware ADS-B
Sat 04:56:30 AM 52.2830 -7.0731 98° East 454 522 37,500 -2,500 Descending FlightAware UK
Sat 04:56:48 AM 52.2760 -6.9994 99° East 456 525 37,500 3,333 Level FlightAware UK
Sat 04:56:57 AM 52.2660 -7.0010 99° East 550 633 39,000  Climbing FlightAware ADS-B
Sat 04:57:12 AM 52.2669 -6.9013 99° East 456 525 37,500 -2,727 Descending FlightAware UK
Sat 04:57:30 AM 52.2597 -6.8279 99° East 454 522 37,500 3,600 Level FlightAware UK
Sat 04:57:37 AM 52.2500 -6.8350 99° East 549 632 39,000  Climbing FlightAware ADS-B
Sat 04:57:54 AM 52.2501 -6.7302 99° East 454 522 37,500 -2,571 Descending FlightAware UK
Sat 04:58:12 AM 52.2429 -6.6570 99° East 454 522 37,500 3,214 Level FlightAware UK
Sat 04:58:22 AM 52.2330 -6.6560 99° East 548 631 39,000  Climbing FlightAware ADS-B
Sat 04:58:42 AM 52.2307 -6.5351 99° East 454 522 37,500  Descending FlightAware UK
Sat 04:59:02 AM 52.2160 -6.4880 99° East 548 631 39,000  Climbing FlightAware ADS-B
Sat 04:59:18 AM 52.2160 -6.3892 99° East 454 522 37,500 -2,647 Descending FlightAware UK
Sat 04:59:36 AM 52.2083 -6.3164 100° East 454 522 37,500 3,750 Level FlightAware UK
Sat 04:59:42 AM 52.1990 -6.3280 100° East 547 629 39,000  Climbing FlightAware ADS-B
Sat 05:00:06 AM 52.1954 -6.1951 100° East 456 525 37,500  Descending FlightAware UK
Sat 05:00:22 AM 52.1820 -6.1700 100° East 547 629 39,000  Climbing FlightAware ADS-B
Sat 05:00:42 AM 52.1798 -6.0498 100° East 454 522 37,500 -2,368 Descending FlightAware UK
Sat 05:01:00 AM 52.1720 -5.9772 100° East 452 520 37,500 3,600 Level FlightAware UK
Sat 05:01:07 AM 52.1630 -5.9860 100° East 546 628 39,000  Climbing FlightAware ADS-B
Sat 05:01:24 AM 52.1613 -5.8797 100° East 454 522 37,500 -2,571 Descending FlightAware UK
Sat 05:01:42 AM 52.1492 -5.8084 105° East 452 520 37,500 3,913 Level FlightAware UK
Sat 05:01:47 AM 52.1410 -5.8270 105° East 547 629 39,000  Climbing FlightAware ADS-B
Sat 05:02:06 AM 52.1318 -5.7147 105° East 452 520 37,500 -2,432 Descending FlightAware UK
Sat 05:02:24 AM 52.1196 -5.6434 105° East 454 522 37,500 3,462 Level FlightAware UK
Sat 05:02:32 AM 52.1100 -5.6450 105° East 548 631 39,000  Climbing FlightAware ADS-B
Sat 05:02:48 AM 52.1061 -5.5478 105° East 454 522 37,500 -2,647 Descending FlightAware UK
Sat 05:03:06 AM 52.0954 -5.4762 104° East 454 522 37,500 3,750 Level FlightAware UK
Sat 05:03:12 AM 52.0890 -5.5030 104° East 547 629 39,000  Climbing FlightAware ADS-B
Sat 05:03:30 AM 52.0817 -5.3806 104° East 452 520 37,500 -2,500 Descending FlightAware UK
Sat 05:03:48 AM 52.0721 -5.3086 102° East 454 522 37,500 3,333 Level FlightAware UK
Sat 05:03:57 AM 52.0640 -5.3160 102° East 547 629 39,000  Climbing FlightAware ADS-B
Sat 05:04:12 AM 52.0598 -5.2126 102° East 452 520 37,500  Descending FlightAware UK
Sat 05:04:37 AM 52.0430 -5.1550 102° East 547 629 39,000  Climbing FlightAware ADS-B
Sat 05:04:54 AM 52.0389 -5.0444 102° East 454 522 37,500 -2,571 Descending FlightAware UK
Sat 05:05:12 AM 52.0303 -4.9724 101° East 452 520 37,500 3,913 Level FlightAware UK
Sat 05:05:17 AM 52.0240 -4.9960 101° East 548 631 39,000  Climbing FlightAware ADS-B
Sat 05:05:36 AM 52.0184 -4.8762 101° East 452 520 37,500 -2,432 Descending FlightAware UK
Sat 05:05:54 AM 52.0095 -4.8040 101° East 454 522 37,500 3,462 Level FlightAware UK
Sat 05:06:02 AM 52.0000 -4.8030 101° East 549 632 39,000  Climbing FlightAware ADS-B
Sat 05:06:18 AM 51.9976 -4.7069 101° East 454 522 37,500 -2,647 Descending FlightAware UK
Sat 05:06:36 AM 51.9887 -4.6346 101° East 452 520 37,500 3,750 Level FlightAware UK
Sat 05:06:42 AM 51.9820 -4.6510 101° East 549 632 39,000  Climbing FlightAware ADS-B
Sat 05:07:06 AM 51.9737 -4.5143 101° East 452 520 37,500  Descending FlightAware UK
Sat 05:07:22 AM 51.9610 -4.4820 101° East 551 634 39,000  Climbing FlightAware ADS-B
Sat 05:07:48 AM 51.9522 -4.3458 101° East 452 520 37,500  Descending FlightAware UK
Sat 05:08:07 AM 51.9390 -4.3110 101° East 552 635 39,000  Climbing FlightAware ADS-B
Sat 05:08:30 AM 51.9300 -4.1768 101° East 454 522 37,500  Descending FlightAware UK
Sat 05:08:47 AM 51.9170 -4.1410 101° East 553 636 39,000  Climbing FlightAware ADS-B
Sat 05:09:12 AM 51.9074 -4.0079 101° East 454 522 37,500  Descending FlightAware UK
Sat 05:09:32 AM 51.8930 -3.9640 101° East 553 636 39,000  Climbing FlightAware ADS-B
Sat 05:09:49 AM 51.8876 -3.8625 101° East 454 522 37,500 -2,571 Descending FlightAware UK
Sat 05:10:07 AM 51.8777 -3.7903 103° East 456 525 37,500 3,913 Level FlightAware UK
Sat 05:10:12 AM 51.8710 -3.8010 103° East 554 638 39,000  Climbing FlightAware ADS-B
Sat 05:10:31 AM 51.8638 -3.6942 103° East 454 522 37,500 -2,432 Descending FlightAware UK
Sat 05:10:49 AM 51.8528 -3.6223 104° East 456 525 37,500 4,286 Level FlightAware UK
Sat 05:10:52 AM 51.8470 -3.6380 104° East 554 638 39,000  Climbing FlightAware ADS-B
Sat 05:11:07 AM 51.8417 -3.5504 104° East 458 527 37,500 -2,727 Descending FlightAware UK
Sat 05:11:25 AM 51.8305 -3.4777 104° East 456 525 37,500 3,000 Level FlightAware UK
Sat 05:11:37 AM 51.8200 -3.4620 104° East 554 638 39,000  Climbing FlightAware ADS-B
Sat 05:12:01 AM 51.8084 -3.3339 104° East 456 525 37,500  Descending FlightAware UK
Sat 05:12:17 AM 51.7950 -3.2990 104° East 554 638 39,000  Climbing FlightAware ADS-B
Sat 05:12:43 AM 51.7819 -3.1659 104° East 456 525 37,500  Descending FlightAware UK
Sat 05:12:57 AM 51.7700 -3.1360 104° East 553 636 39,000  Climbing FlightAware ADS-B
Sat 05:13:13 AM 51.7634 -3.0465 104° East 458 527 37,500  Descending FlightAware UK
Sat 05:13:42 AM 51.7420 -2.9520 104° East 552 635 39,000  Climbing FlightAware ADS-B
Sat 05:14:01 AM 51.7335 -2.8554 104° East 458 527 37,500  Descending FlightAware UK
Sat 05:14:23 AM 51.7157 -2.7858 104° East 551 634 39,000  Climbing FlightAware ADS-B
Sat 05:14:43 AM 51.7070 -2.6895 104° East 456 525 37,500  Descending FlightAware UK
Sat 05:14:53 AM 51.6969 -2.6659 104° East 550 633 39,000  Climbing FlightAware ADS-B
Sat 05:15:13 AM 51.6882 -2.5714 104° East 456 525 37,500  Descending FlightAware UK
Sat 05:15:23 AM 51.6778 -2.5449 104° East 549 632 39,000 2,250 Climbing FlightAware ADS-B
Sat 05:15:53 AM 51.6586 -2.4258 105° East 548 631 39,000  Level FlightAware ADS-B
Sat 05:16:26 AM 51.6380 -2.2959 104° East 547 629 39,000 -1,765 Level FlightAware ADS-B
Sat 05:16:44 AM 51.6309 -2.2173 104° East 454 522 37,500  Descending FlightAware UK
Sat 05:16:57 AM 51.6186 -2.1774 104° East 547 629 39,000  Climbing FlightAware ADS-B
Sat 05:17:14 AM 51.6116 -2.1006 104° East 456 525 37,500  Descending FlightAware UK
Sat 05:17:27 AM 51.5993 -2.0599 104° East 546 628 39,000 2,045 Climbing FlightAware ADS-B
Sat 05:17:58 AM 51.5791 -1.9367 105° East 544 626 39,000 -1,915 Level FlightAware ADS-B
Sat 05:18:14 AM 51.5727 -1.8669 105° East 456 525 37,500  Descending FlightAware UK
Sat 05:18:30 AM 51.5587 -1.8137 105° East 543 625 39,000 1,915 Climbing FlightAware ADS-B
Sat 05:19:01 AM 51.5382 -1.6924 105° East 543 625 39,000 -1,800 Level FlightAware ADS-B
Sat 05:19:20 AM 51.5294 -1.6113 105° East 456 525 37,500  Descending FlightAware UK
Sat 05:19:31 AM 51.5186 -1.5755 105° East 541 623 39,000  Climbing FlightAware ADS-B
Sat 05:19:50 AM 51.5098 -1.4960 105° East 456 525 37,500  Descending FlightAware UK
Sat 05:20:02 AM 51.4987 -1.4583 105° East 540 621 39,000 2,093 Climbing FlightAware ADS-B
Sat 05:20:33 AM 51.4785 -1.3390 105° East 539 620 39,000 -1,667 Level FlightAware ADS-B
Sat 05:20:56 AM 51.4661 -1.2427 105° East 454 522 37,500  Descending FlightAware UK
Sat 05:21:05 AM 51.4572 -1.2161 105° East 539 620 39,000  Climbing FlightAware ADS-B
Sat 05:21:26 AM 51.4460 -1.1290 105° East 454 522 37,500  Descending FlightAware UK
Sat 05:21:35 AM 51.4368 -1.1012 105° East 537 618 39,000  Climbing FlightAware ADS-B
Sat 05:21:50 AM 51.4293 -1.0363 105° East 454 522 37,500  Descending FlightAware UK
Sat 05:22:06 AM 51.4156 -0.9830 105° East 537 618 39,000 1,875 Climbing FlightAware ADS-B
Sat 05:22:38 AM 51.3934 -0.8599 106° East 535 616 39,000 -1,800 Level FlightAware ADS-B
Sat 05:22:56 AM 51.3836 -0.7868 106° East 456 525 37,500  Descending FlightAware UK
Sat 05:23:09 AM 51.3723 -0.7439 106° East 534 615 39,000 2,045 Climbing FlightAware ADS-B
Sat 05:23:40 AM 51.3508 -0.6259 106° East 534 615 39,000 -1,667 Level FlightAware ADS-B
Sat 05:24:03 AM 51.3380 -0.5375 106° East 452 520 37,500  Descending FlightAware UK
Sat 05:24:10 AM 51.3300 -0.5102 106° East 533 613 39,000  Climbing FlightAware ADS-B
Sat 05:24:27 AM 51.3216 -0.4463 106° East 450 518 37,500  Descending FlightAware UK
Sat 05:24:41 AM 51.3096 -0.3962 106° East 533 613 39,000  Climbing FlightAware ADS-B
Sat 05:25:03 AM 51.2973 -0.3109 106° East 448 516 37,500  Descending FlightAware UK
Sat 05:25:16 AM 51.2859 -0.2639 106° East 535 616 39,000 2,045 Climbing FlightAware ADS-B
Sat 05:25:47 AM 51.2643 -0.1444 106° East 534 615 39,000  Level FlightAware ADS-B
Sat 05:26:18 AM 51.2432 -0.0291 106° East 534 615 39,000  Level FlightAware ADS-B
Sat 05:26:49 AM 51.2213 0.0892 106° East 534 615 39,000  Level FlightAware ADS-B
Sat 05:27:20 AM 51.1997 0.2060 106° East 534 615 39,000  Level FlightAware ADS-B
Sat 05:27:51 AM 51.1781 0.3217 107° East 533 613 39,000  Level FlightAware ADS-B
Sat 05:28:21 AM 51.1570 0.4348 107° East 532 612 39,000  Level FlightAware ADS-B
Sat 05:28:51 AM 51.1359 0.5477 107° East 531 611 39,000  Level FlightAware ADS-B
Sat 05:29:23 AM 51.1135 0.6665 107° East 531 611 39,000 -1,667 Level FlightAware ADS-B
Sat 05:29:45 AM 51.0997 0.7475 107° East 460 529 37,500  Descending FlightAware UK
Sat 05:29:53 AM 51.0919 0.7791 107° East 531 611 39,000  Climbing FlightAware ADS-B
Sat 05:30:10 AM 51.0823 0.8373 107° East 460 529 37,500  Descending FlightAware UK
Sat 05:30:24 AM 51.0696 0.8941 107° East 530 610 39,000  Climbing FlightAware ADS-B
Sat 05:30:40 AM 51.0604 0.9483 107° East 462 532 37,500  Descending FlightAware UK
Sat 05:31:03 AM 51.0418 1.0363 107° East 529 609 39,000  Climbing FlightAware ADS-B
Sat 05:31:22 AM 51.0297 1.1040 107° East 460 529 37,500  Descending FlightAware UK
Sat 05:31:45 AM 51.0116 1.1896 107° East 527 606 39,000  Climbing FlightAware ADS-B
Sat 05:32:04 AM 50.9988 1.2582 107° East 462 532 37,500  Descending FlightAware UK
Sat 05:32:16 AM 50.9882 1.3061 107° East 525 604 39,000  Climbing FlightAware ADS-B
Sat 05:32:34 AM 50.9769 1.3685 107° East 464 534 37,500  Descending FlightAware UK
Sat 05:33:02 AM 50.9531 1.4728 107° East 523 602 39,000  Climbing FlightAware ADS-B
Sat 05:33:22 AM 50.9371 1.5401 107° East 458 527 37,500 -2,368 Descending FlightAware UK
Sat 05:33:40 AM 50.9183 1.6029 115° Southeast 458 527 37,500 2,500 Level FlightAware UK
Sat 05:33:58 AM 50.8960 1.6624 115° Southeast 521 600 39,000 2,571 Climbing FlightAware ADS-B
Sat 05:34:15 AM 50.8722 1.7147 126° Southeast 519 597 39,000  Level FlightAware ADS-B
Sat 05:34:38 AM 50.8343 1.7818 132° Southeast 517 595 39,000 -2,093 Level FlightAware ADS-B
Sat 05:34:58 AM 50.8015 1.8329 132° Southeast 458 527 37,500  Descending FlightAware UK
Sat 05:35:09 AM 50.7840 1.8642 132° Southeast 516 594 39,000  Climbing FlightAware ADS-B
Sat 05:35:28 AM 50.7518 1.9141 132° Southeast 458 527 37,500 -2,432 Descending FlightAware UK
Sat 05:35:46 AM 50.7216 1.9623 135° Southeast 458 527 37,500 3,103 Level FlightAware UK
Sat 05:35:57 AM 50.7070 1.9880 135° Southeast 509 586 39,000  Climbing FlightAware ADS-B
Sat 05:36:17 AM 50.6710 2.0427 135° Southeast 458 527 37,500  Descending FlightAware UK
Sat 05:36:27 AM 50.6535 2.0733 135° Southeast 515 593 39,000 2,195 Climbing FlightAware ADS-B
Sat 05:36:58 AM 50.6015 2.1561 135° Southeast 514 592 39,000 -1,607 Level FlightAware ADS-B
Sat 05:37:23 AM 50.5607 2.2180 135° Southeast 458 527 37,500 -1,475 Descending FlightAware UK
Sat 05:37:59 AM 50.5006 2.3133 135° Southeast 458 527 37,500 1,837 Level FlightAware UK
Sat 05:38:12 AM 50.4810 2.3460 135° Southeast 512 589 39,000  Climbing FlightAware ADS-B
Sat 05:38:35 AM 50.4401 2.4074 135° Southeast 458 527 37,500  Descending FlightAware UK
Sat 05:38:52 AM 50.4160 2.4470 135° Southeast 511 588 39,000 1,731 Climbing FlightAware ADS-B
Sat 05:39:27 AM 50.3570 2.5390 135° Southeast 510 587 39,000 -2,432 Level FlightAware ADS-B
Sat 05:39:29 AM 50.3493 2.5480 135° Southeast 458 527 37,500 -2,045 Descending FlightAware UK
Sat 05:40:11 AM 50.2790 2.6574 135° Southeast 458 527 37,500 2,093 Level FlightAware UK
Sat 05:40:12 AM 50.2780 2.6600 135° Southeast 509 586 39,000 1,957 Climbing FlightAware ADS-B
Sat 05:40:57 AM 50.2060 2.7710 135° Southeast 508 585 39,000 -1,385 Level FlightAware ADS-B
Sat 05:41:17 AM 50.1684 2.8273 135° Southeast 458 527 37,500  Descending FlightAware UK
Sat 05:41:37 AM 50.1420 2.8750 135° Southeast 508 585 39,000  Climbing FlightAware ADS-B
Sat 05:41:53 AM 50.1133 2.9275 135° Southeast 458 527 37,500 -2,647 Descending FlightAware UK
Sat 05:42:11 AM 50.0868 2.9790 129° Southeast 458 527 37,500 3,103 Level FlightAware UK
Sat 05:42:22 AM 50.0780 3.0000 129° Southeast 508 585 39,000  Climbing FlightAware ADS-B
Sat 05:42:41 AM 50.0431 3.0661 129° Southeast 458 527 37,500  Descending FlightAware UK
Sat 05:42:57 AM 50.0280 3.1010 127° Southeast 508 585 39,000  Climbing FlightAware ADS-B
Sat 05:42:59 AM 50.0174 3.1184 127° Southeast 458 527 37,500 -4,500 Descending FlightAware UK
Sat 05:43:17 AM 49.9920 3.1711 127° Southeast 458 527 37,500  Level FlightAware UK
Sat 05:43:41 AM 49.9583 3.2411 127° Southeast 458 527 37,500 3,600 Level FlightAware UK
Sat 05:43:42 AM 49.9620 3.2370 127° Southeast 507 583 39,000  Climbing FlightAware ADS-B
Sat 05:44:05 AM 49.9246 3.3113 127° Southeast 458 527 37,500  Descending FlightAware UK
Sat 05:44:32 AM 49.8910 3.3810 127° Southeast 507 583 39,000 1,343 Climbing FlightAware ADS-B
Sat 05:45:12 AM 49.8360 3.4950 127° Southeast 505 581 39,000  Level FlightAware ADS-B
Sat 05:45:52 AM 49.7760 3.6170 127° Southeast 504 580 39,000 -1,525 Level FlightAware ADS-B
Sat 05:46:11 AM 49.7467 3.6751 127° Southeast 1 1 37,500  Descending FlightAware UK
Sat 05:46:37 AM 49.7180 3.7360 127° Southeast 504 580 39,000 1,268 Climbing FlightAware ADS-B
Sat 05:47:22 AM 49.6580 3.8580 127° Southeast 503 579 39,000  Level FlightAware ADS-B
Sat 05:48:02 AM 49.5940 3.9870 127° Southeast 503 579 39,000 -1,233 Level FlightAware ADS-B
Sat 05:48:35 AM 49.5424 4.0868 127° Southeast 1 1 37,500  Descending FlightAware UK
Sat 05:48:42 AM 49.5400 4.0970 127° Southeast 503 579 39,000  Climbing FlightAware ADS-B
Sat 05:49:05 AM 49.5000 4.1724 127° Southeast 1 1 37,500 -2,195 Descending FlightAware UK
Sat 05:49:23 AM 49.4746 4.2241 127° Southeast 1 1 37,500 4,091 Level FlightAware UK
Sat 05:49:27 AM 49.4770 4.2230 127° Southeast 503 579 39,000  Climbing FlightAware ADS-B
Sat 05:49:59 AM 49.4241 4.3281 127° Southeast 1 1 37,500  Descending FlightAware UK
Sat 05:50:02 AM 49.4280 4.3210 127° Southeast 502 578 39,000 1,875 Climbing FlightAware ADS-B
Sat 05:50:47 AM 49.3640 4.4470 128° Southeast 502 578 39,000 -1,111 Level FlightAware ADS-B
Sat 05:51:23 AM 49.3042 4.5663 128° Southeast 1 1 37,500  Descending FlightAware UK
Sat 05:51:32 AM 49.2970 4.5790 128° Southeast 502 578 39,000  Climbing FlightAware ADS-B
Sat 05:51:47 AM 49.2700 4.6335 128° Southeast 1 1 37,500  Descending FlightAware UK
Sat 05:52:12 AM 49.2440 4.6830 128° Southeast 502 578 39,000 1,286 Climbing FlightAware ADS-B
Sat 05:52:57 AM 49.1760 4.8070 130° Southeast 501 577 39,000  Level FlightAware ADS-B
Sat 05:53:37 AM 49.1150 4.9170 130° Southeast 502 578 39,000 -505 Level FlightAware ADS-B
Sat 05:54:32 AM 49.0360 5.0620 130° Southeast 504 580 38,200 -1,080 Descending FlightAware ADS-B
Sat 05:55:17 AM 48.9700 5.1800 130° Southeast 502 578 37,200 -1,341 Descending FlightAware ADS-B
Sat 05:55:57 AM 48.9110 5.2870 130° Southeast 504 580 36,300 -1,350 Descending FlightAware ADS-B
Sat 05:56:37 AM 48.8480 5.3980 131° Southeast 514 592 35,400 -1,482 Descending FlightAware ADS-B
Sat 05:57:22 AM 48.7790 5.5180 131° Southeast 520 598 34,200 -1,412 Descending FlightAware ADS-B
Sat 05:58:02 AM 48.7200 5.6220 131° Southeast 522 601 33,400 -1,200 Descending FlightAware ADS-B
Sat 05:58:42 AM 48.6630 5.7240 130° Southeast 519 597 32,600 -1,059 Descending FlightAware ADS-B
Sat 05:59:27 AM 48.5970 5.8410 130° Southeast 508 585 31,900 -1,050 Descending FlightAware ADS-B
Sat 06:00:02 AM 48.5540 5.9170 131° Southeast 509 586 31,200 -1,680 Descending FlightAware ADS-B
Sat 06:00:42 AM 48.4640 6.0740 131° Southeast 510 587 29,800 -1,733 Descending FlightAware ADS-B
Sat 06:01:32 AM 48.3910 6.2020 131° Southeast 508 585 28,600 -1,642 Descending FlightAware ADS-B
Sat 06:02:17 AM 48.3200 6.3250 131° Southeast 510 587 27,200 -1,765 Descending FlightAware ADS-B
Sat 06:02:57 AM 48.2570 6.4330 131° Southeast 498 573 26,100 -1,425 Descending FlightAware ADS-B
Sat 06:03:37 AM 48.2020 6.5280 131° Southeast 469 540 25,300 -1,271 Descending FlightAware ADS-B
Sat 06:04:22 AM 48.1340 6.6410 132° Southeast 425 489 24,300 -1,271 Descending FlightAware ADS-B
Sat 06:05:02 AM 48.0840 6.7250 132° Southeast 394 453 23,500 -1,200 Descending FlightAware ADS-B
Sat 06:05:47 AM 48.0330 6.8120 131° Southeast 367 422 22,600 -1,482 Descending FlightAware ADS-B
Sat 06:06:27 AM 47.9880 6.8890 131° Southeast 363 418 21,400 -1,575 Descending FlightAware ADS-B
Sat 06:07:07 AM 47.9450 6.9620 131° Southeast 350 403 20,500 -1,412 Descending FlightAware ADS-B
Sat 06:07:52 AM 47.8960 7.0450 131° Southeast 347 399 19,400 -1,482 Descending FlightAware ADS-B
Sat 06:08:32 AM 47.8550 7.1160 131° Southeast 343 395 18,400 -988 Descending FlightAware ADS-B
Sat 06:09:17 AM 47.8080 7.1940 132° Southeast 336 387 18,000 -353 Descending FlightAware ADS-B
Sat 06:09:57 AM 47.7670 7.2630 131° Southeast 328 377 17,900 -675 Descending FlightAware ADS-B
Sat 06:10:37 AM 47.7260 7.3320 131° Southeast 329 379 17,100 -1,341 Descending FlightAware ADS-B
Sat 06:11:22 AM 47.6810 7.4070 132° Southeast 332 382 16,000 -1,341 Descending FlightAware ADS-B
Sat 06:12:02 AM 47.6400 7.4800 130° Southeast 327 376 15,200 -1,200 Descending FlightAware ADS-B
Sat 06:12:47 AM 47.6120 7.5720 114° Southeast 317 365 14,300 -1,271 Descending FlightAware ADS-B
Sat 06:13:27 AM 47.5910 7.6490 112° Southeast 311 358 13,400 -1,200 Descending FlightAware ADS-B
Sat 06:14:12 AM 47.5670 7.7370 112° Southeast 299 344 12,600 -1,200 Descending FlightAware ADS-B
Sat 06:14:52 AM 47.5470 7.8140 111° Southeast 290 334 11,700 -1,575 Descending FlightAware ADS-B
Sat 06:15:32 AM 47.5280 7.8850 112° Southeast 286 329 10,500 -1,971 Descending FlightAware ADS-B
Sat 06:16:02 AM 47.5140 7.9430 110° East 283 326 9,400 -2,000 Descending FlightAware ADS-B
Sat 06:16:32 AM 47.5030 7.9980 106° East 280 322 8,500 -1,650 Descending FlightAware ADS-B
Sat 06:16:42 AM 47.5050 8.0140 80° East 283 326 8,300 -1,500 Descending FlightAware ADS-B
Sat 06:16:52 AM 47.5110 8.0330 65° Northeast 278 320 8,000 -1,600 Descending FlightAware ADS-B
Sat 06:17:12 AM 47.5330 8.0560 35° Northeast 268 308 7,500 -1,200 Descending FlightAware ADS-B
Sat 06:17:42 AM 47.5680 8.0660 11° North 261 300 7,000 -764 Descending FlightAware ADS-B
Sat 06:18:07 AM 47.5950 8.0750 13° North 245 282 6,800 -360 Descending FlightAware ADS-B
Sat 06:18:32 AM 47.6200 8.0840 14° North 246 283 6,700 -400 Descending FlightAware ADS-B
Sat 06:18:52 AM 47.6410 8.0980 24° Northeast 245 282 6,500 -686 Descending FlightAware ADS-B
Sat 06:19:07 AM 47.6520 8.1200 53° Northeast 243 280 6,300 -776 Descending FlightAware ADS-B
Sat 06:20:17 AM 47.6580 8.2310 85° East 243 280 5,400 -758 Descending FlightAware ADS-B
Sat 06:20:42 AM 47.6520 8.2730 102° East 230 265 5,100 -600 Descending FlightAware ADS-B
Sat 06:20:57 AM 47.6450 8.2860 129° Southeast 210 242 5,000 -857 Descending FlightAware ADS-B
Sat 06:21:17 AM 47.6300 8.3110 132° Southeast 207 238 4,600 -982 Descending FlightAware ADS-B
Sat 06:21:52 AM 47.6040 8.3460 138° Southeast 200 230 4,100 -738 Descending FlightAware ADS-B
Sat 06:22:22 AM 47.5830 8.3750 137° Southeast 198 228 3,800 -667 Descending FlightAware ADS-B
Sat 06:22:37 AM 47.5740 8.3870 138° Southeast 196 226 3,600 -900 Descending FlightAware ADS-B
Sat 06:23:02 AM 47.5590 8.4070 138° Southeast 196 226 3,200 -1,200 Descending FlightAware ADS-B
Sat 06:23:27 AM 47.5390 8.4350 137° Southeast 182 209 2,600 -1,059 Descending FlightAware ADS-B
Sat 06:24:27 AM 47.5070 8.4800 136° Southeast 151 174 1,700 -880 Descending FlightAware ADS-B
Sat 06:24:42 AM 47.4990 8.4900 140° Southeast 152 175 1,500 -686 Descending FlightAware ADS-B
Sat 06:25:02 AM 47.4900 8.5030 136° Southeast 152 175 1,300 -267 Descending FlightAware ADS-B
Sat 06:25:27 AM 47.4770 8.5210 137° Southeast 152 175 1,300  Level FlightAware ADS-B

Login

Don't have an account? Register now (free) for customized features, flight alerts, and more!